CheckWX is a tool to help pilots better visualize weather data.  It is not intended as a substitute for an official pre-flight weather briefing.

21:00:56 UTC

KMHR TAF
Sacramento Mather Airport
Sacramento, California, USA
KMHR 161735Z 1618/1718 20007KT P6SM SKC AMD NOT SKED

Jun-16@
18:00 UTC

Jun-16 @ 18:00 UTC

Jun-17@
18:00 UTC

Jun-17 @ 18:00 UTC

KMHR 161735Z 1618/1718 20007KT P6SM SKC AMD NOT SKED
Wind
  • 200° at 7 KTS
Cloud Levels
  • Clear skies